Time;durP1;ratioP1;P1;durP2;ratioP2;P2;SDS_P1;SDS_P2;PMS_P1;PMS_P2;Temp;Humidity;BMP_temperature;BMP_pressure;BME280_temperature;BME280_humidity;BME280_pressure;Samples;Min_cycle;Max_cycle;Signal;HPM_P1;HPM_P2
2023/12/22 00:01:23;;;;;;;20.43;3.37;;;10.70;1.00;;;;;;4992590;28;38730;-77
2023/12/22 00:03:49;;;;;;;14.47;3.07;;;10.70;1.00;;;;;;4992738;28;36893;-76
2023/12/22 00:06:16;;;;;;;15.97;2.90;;;10.60;1.00;;;;;;4991216;28;35960;-77
2023/12/22 00:08:42;;;;;;;24.43;3.10;;;10.60;1.00;;;;;;5007322;28;37707;-77
2023/12/22 00:11:08;;;;;;;19.80;3.17;;;10.60;1.00;;;;;;4991894;28;38810;-77
2023/12/22 00:13:34;;;;;;;20.30;3.23;;;10.60;1.00;;;;;;4990681;28;37146;-78
2023/12/22 00:16:01;;;;;;;19.03;4.20;;;10.60;1.00;;;;;;4993457;28;38951;-77
2023/12/22 00:18:27;;;;;;;19.63;3.63;;;10.50;1.00;;;;;;4995237;28;48019;-77
2023/12/22 00:20:53;;;;;;;20.47;4.10;;;10.50;1.00;;;;;;4994026;28;37864;-77
2023/12/22 00:23:19;;;;;;;19.07;3.67;;;10.60;1.00;;;;;;4987870;28;37725;-76
2023/12/22 00:25:45;;;;;;;14.27;3.53;;;10.50;1.00;;;;;;4991429;28;37620;-78
2023/12/22 00:28:11;;;;;;;19.53;4.23;;;10.50;1.00;;;;;;4990520;28;39966;-78
2023/12/22 00:30:41;;;;;;;20.37;3.73;;;10.60;1.00;;;;;;4992374;28;38968;-78
2023/12/22 00:33:07;;;;;;;20.43;3.60;;;10.60;1.00;;;;;;4990625;28;37932;-77
2023/12/22 00:35:35;;;;;;;19.30;3.77;;;10.60;1.00;;;;;;4994317;28;38416;-78
2023/12/22 00:38:01;;;;;;;17.23;2.67;;;10.60;1.00;;;;;;4987646;28;39031;-78
2023/12/22 00:40:27;;;;;;;18.83;3.67;;;10.60;1.00;;;;;;4992830;28;47263;-77
2023/12/22 00:42:54;;;;;;;17.00;3.17;;;10.60;1.00;;;;;;4992394;28;36899;-77
2023/12/22 00:45:20;;;;;;;18.53;3.07;;;10.60;1.00;;;;;;4995279;28;37218;-77
2023/12/22 00:47:46;;;;;;;18.17;3.37;;;10.60;1.00;;;;;;4990034;28;37583;-78
2023/12/22 00:50:12;;;;;;;16.43;2.90;;;10.50;1.00;;;;;;5006873;28;37770;-78
2023/12/22 00:52:38;;;;;;;14.90;2.50;;;10.40;1.00;;;;;;4996395;28;38404;-77
2023/12/22 00:55:05;;;;;;;15.27;3.53;;;10.50;1.00;;;;;;4998612;28;38924;-78
2023/12/22 00:57:31;;;;;;;14.57;3.67;;;10.50;1.00;;;;;;4992033;28;47324;-78
2023/12/22 00:59:57;;;;;;;24.60;3.40;;;10.50;1.00;;;;;;4997185;28;37354;-78
2023/12/22 01:02:23;;;;;;;16.13;3.67;;;10.40;1.00;;;;;;4997457;28;37785;-78
2023/12/22 01:04:49;;;;;;;18.70;2.83;;;10.50;1.00;;;;;;4992240;28;36027;-78
2023/12/22 01:07:15;;;;;;;19.53;3.70;;;10.50;1.00;;;;;;4992791;28;38845;-77
2023/12/22 01:09:42;;;;;;;23.90;3.50;;;10.50;1.00;;;;;;4991644;28;38424;-77
2023/12/22 01:12:10;;;;;;;23.63;3.63;;;10.50;1.00;;;;;;4990159;28;41855;-77
2023/12/22 01:14:36;;;;;;;16.00;3.10;;;10.50;1.00;;;;;;4990973;28;37472;-78
2023/12/22 01:17:02;;;;;;;28.57;4.70;;;10.50;1.00;;;;;;4989641;28;39026;-77
2023/12/22 01:19:29;;;;;;;16.03;3.67;;;10.40;1.00;;;;;;4990451;28;37474;-78
2023/12/22 01:21:55;;;;;;;17.13;2.90;;;10.50;1.00;;;;;;4988866;28;36847;-78
2023/12/22 01:24:21;;;;;;;22.27;3.63;;;10.50;1.00;;;;;;4989943;28;37286;-78
2023/12/22 01:26:47;;;;;;;24.17;4.00;;;10.40;1.00;;;;;;4989632;28;37780;-78
2023/12/22 01:29:16;;;;;;;18.63;3.20;;;10.40;1.00;;;;;;4990117;28;38063;-77
2023/12/22 01:31:42;;;;;;;22.87;4.27;;;10.40;1.00;;;;;;4985822;28;38575;-77
2023/12/22 01:34:08;;;;;;;25.07;4.07;;;10.40;1.00;;;;;;4990210;28;36620;-77
2023/12/22 01:36:34;;;;;;;21.63;4.03;;;10.30;1.00;;;;;;4989484;28;37958;-77
2023/12/22 01:39:01;;;;;;;22.07;5.13;;;10.20;1.00;;;;;;4987836;28;37900;-78
2023/12/22 01:41:27;;;;;;;28.57;4.90;;;10.20;1.00;;;;;;4980565;28;47951;-77
2023/12/22 01:43:53;;;;;;;18.57;3.97;;;10.30;1.00;;;;;;4988324;28;37746;-77
2023/12/22 01:46:19;;;;;;;25.63;4.20;;;10.30;1.00;;;;;;4990141;28;38437;-76
2023/12/22 01:48:46;;;;;;;25.43;3.93;;;10.40;1.00;;;;;;4984299;28;38366;-76
2023/12/22 01:51:12;;;;;;;35.80;4.50;;;10.20;9.50;;;;;;4988059;28;38452;-77
2023/12/22 01:53:39;;;;;;;24.67;4.27;;;9.50;70.70;;;;;;4987118;28;36112;-76
2023/12/22 01:56:05;;;;;;;26.37;3.57;;;9.10;99.00;;;;;;4987850;28;37342;-76
2023/12/22 01:58:34;;;;;;;31.97;5.87;;;8.90;99.90;;;;;;4989681;28;34994;-76
2023/12/22 02:03:36;;;;;;;20.30;3.97;;;9.10;99.90;;;;;;5083437;22;20225;-74
2023/12/22 02:06:04;;;;;;;22.30;3.17;;;9.30;99.90;;;;;;4959494;28;40959;-74
2023/12/22 02:08:33;;;;;;;22.43;3.47;;;9.50;99.90;;;;;;4955668;28;37471;-74
2023/12/22 02:10:59;;;;;;;17.57;3.50;;;9.40;97.00;;;;;;4964950;28;38386;-74
2023/12/22 02:13:25;;;;;;;18.60;2.60;;;9.60;91.20;;;;;;4963409;28;35942;-74
2023/12/22 02:16:00;;;;;;;20.80;3.30;;;9.60;60.00;;;;;;4967106;28;38589;-75
2023/12/22 02:18:32;;;;;;;12.97;2.50;;;9.80;31.70;;;;;;4969048;28;37605;-75
2023/12/22 02:20:59;;;;;;;17.05;2.95;;;9.90;16.70;;;;;;4964667;28;37033;-74
2023/12/22 02:23:25;;;;;;;18.10;3.47;;;9.90;17.40;;;;;;4966130;28;36772;-74
2023/12/22 02:26:02;;;;;;;17.80;2.80;;;9.90;11.90;;;;;;4967366;28;38910;-74
2023/12/22 02:28:29;;;;;;;16.63;3.40;;;10.10;9.30;;;;;;4960346;28;46496;-74
2023/12/22 02:31:09;;;;;;;18.80;3.50;;;10.10;10.30;;;;;;4959942;28;37215;-75
2023/12/22 02:33:36;;;;;;;26.10;3.90;;;10.20;9.90;;;;;;4961344;28;48815;-73
2023/12/22 02:36:05;;;;;;;20.93;3.37;;;10.20;15.90;;;;;;4969442;28;39041;-75
2023/12/22 02:38:35;;;;;;;15.27;2.93;;;10.20;24.90;;;;;;4965267;28;39099;-74
2023/12/22 02:41:02;;;;;;;21.27;3.17;;;10.20;22.80;;;;;;4981968;28;38547;-75
2023/12/22 02:43:29;;;;;;;15.67;3.27;;;10.30;14.10;;;;;;4979629;28;36242;-74
2023/12/22 02:45:55;;;;;;;18.60;3.10;;;10.30;12.40;;;;;;4978704;28;37357;-75
2023/12/22 02:48:21;;;;;;;15.97;3.33;;;10.40;4.40;;;;;;4979958;28;38197;-76
2023/12/22 02:50:47;;;;;;;19.80;3.40;;;10.30;8.50;;;;;;4982212;28;37449;-74
2023/12/22 02:53:13;;;;;;;14.80;2.70;;;10.30;1.00;;;;;;4967740;28;37677;-72
2023/12/22 02:55:39;;;;;;;18.87;3.37;;;10.40;1.00;;;;;;4981106;28;38819;-73
2023/12/22 02:58:05;;;;;;;24.63;3.10;;;10.40;1.00;;;;;;4964149;28;38494;-74
2023/12/22 03:00:31;;;;;;;23.83;3.10;;;10.40;1.00;;;;;;4965200;28;37108;-74
2023/12/22 03:02:57;;;;;;;21.53;3.57;;;10.40;1.00;;;;;;4966342;28;37411;-74
2023/12/22 03:05:24;;;;;;;18.93;4.03;;;10.50;1.00;;;;;;4961157;28;39149;-74
2023/12/22 03:07:50;;;;;;;18.43;2.70;;;10.50;1.00;;;;;;4979415;28;37132;-74
2023/12/22 03:10:16;;;;;;;14.63;2.33;;;10.50;1.00;;;;;;4964882;28;36817;-74
2023/12/22 03:12:42;;;;;;;25.63;2.97;;;10.50;1.00;;;;;;4972861;28;36022;-74
2023/12/22 03:15:09;;;;;;;24.13;3.23;;;10.50;1.00;;;;;;4963300;28;37682;-73
2023/12/22 03:17:35;;;;;;;16.60;2.87;;;10.50;1.00;;;;;;4967815;28;39097;-75
2023/12/22 03:20:01;;;;;;;20.97;3.70;;;10.50;1.00;;;;;;4961238;28;37282;-74
2023/12/22 03:22:27;;;;;;;21.43;2.90;;;10.50;1.00;;;;;;4966123;28;36787;-74
2023/12/22 03:24:53;;;;;;;13.53;2.90;;;10.50;1.00;;;;;;4965234;28;38849;-74
2023/12/22 03:27:20;;;;;;;18.13;3.30;;;10.50;1.00;;;;;;4965985;28;38257;-75
2023/12/22 03:29:46;;;;;;;25.17;3.40;;;10.50;1.00;;;;;;4965643;28;38914;-74
2023/12/22 03:32:12;;;;;;;14.07;2.77;;;10.50;1.00;;;;;;4984908;28;36635;-74
2023/12/22 03:34:38;;;;;;;22.63;3.57;;;10.50;1.00;;;;;;4964980;28;37374;-74
2023/12/22 03:37:04;;;;;;;19.73;3.03;;;10.50;1.00;;;;;;4959482;28;37641;-73
2023/12/22 03:39:30;;;;;;;21.43;3.53;;;10.50;1.00;;;;;;4965776;28;37199;-74
2023/12/22 03:41:59;;;;;;;20.17;2.73;;;10.40;1.00;;;;;;4963880;28;37066;-74
2023/12/22 03:44:25;;;;;;;15.67;2.33;;;10.50;1.00;;;;;;4981615;28;37563;-75
2023/12/22 03:46:51;;;;;;;18.23;2.87;;;10.50;1.00;;;;;;4984816;28;37227;-75
2023/12/22 03:49:19;;;;;;;19.53;3.73;;;10.50;1.00;;;;;;4969527;28;37330;-74
2023/12/22 03:51:45;;;;;;;21.30;2.80;;;10.50;1.00;;;;;;4985443;28;38208;-76
2023/12/22 03:54:11;;;;;;;15.67;2.93;;;10.60;1.00;;;;;;4974469;28;38530;-74
2023/12/22 03:56:37;;;;;;;18.40;2.30;;;10.60;8.60;;;;;;4960901;28;38250;-74
2023/12/22 03:59:03;;;;;;;11.53;2.77;;;10.60;16.20;;;;;;4974244;28;37226;-74
2023/12/22 04:01:29;;;;;;;16.37;3.20;;;10.60;22.80;;;;;;4972519;28;36185;-74
2023/12/22 04:03:56;;;;;;;41.40;3.53;;;10.50;28.10;;;;;;4983847;28;37539;-73
2023/12/22 04:06:22;;;;;;;21.60;3.63;;;10.50;33.30;;;;;;4982904;28;39588;-73
2023/12/22 04:08:48;;;;;;;18.77;2.70;;;10.50;34.80;;;;;;4969578;28;37873;-74
2023/12/22 04:11:14;;;;;;;15.33;2.90;;;10.60;26.40;;;;;;4961803;28;36338;-74
2023/12/22 04:13:40;;;;;;;13.70;2.23;;;10.60;28.20;;;;;;4964158;28;39090;-74
2023/12/22 04:16:06;;;;;;;15.93;2.53;;;10.50;17.80;;;;;;4977442;28;37682;-74
2023/12/22 04:18:32;;;;;;;23.77;2.70;;;10.60;14.80;;;;;;4968730;28;38253;-74
2023/12/22 04:20:58;;;;;;;12.67;3.53;;;10.60;21.30;;;;;;4975582;28;36161;-74
2023/12/22 04:23:24;;;;;;;18.20;3.27;;;10.60;27.50;;;;;;4980351;28;37646;-74
2023/12/22 04:25:51;;;;;;;17.90;2.87;;;10.50;29.20;;;;;;4968519;28;39527;-74
2023/12/22 04:28:17;;;;;;;18.97;3.03;;;10.50;38.90;;;;;;4963072;28;36815;-75
2023/12/22 04:30:43;;;;;;;20.40;3.37;;;10.40;47.20;;;;;;4962321;28;35942;-74
2023/12/22 04:33:09;;;;;;;16.17;3.07;;;10.50;52.20;;;;;;4961226;28;40147;-74
2023/12/22 04:35:35;;;;;;;22.67;3.97;;;10.50;64.10;;;;;;4959059;28;37581;-74
2023/12/22 04:38:01;;;;;;;19.83;4.33;;;10.50;86.10;;;;;;4961342;28;37491;-74
2023/12/22 04:40:28;;;;;;;29.10;4.97;;;10.50;93.00;;;;;;4961240;28;48875;-73
2023/12/22 04:42:54;;;;;;;31.13;5.50;;;10.60;96.00;;;;;;4963910;28;38631;-74
2023/12/22 04:45:21;;;;;;;41.00;6.80;;;10.60;98.50;;;;;;4961537;28;36967;-74
2023/12/22 04:47:47;;;;;;;37.40;5.60;;;10.60;98.60;;;;;;4961052;28;36906;-74
2023/12/22 04:50:13;;;;;;;25.33;5.77;;;10.60;99.70;;;;;;4967474;28;36998;-76
2023/12/22 04:52:40;;;;;;;34.70;5.43;;;10.60;99.90;;;;;;4973637;28;38248;-75
2023/12/22 04:55:06;;;;;;;31.40;5.00;;;10.60;99.90;;;;;;4974230;28;37019;-74
2023/12/22 04:57:32;;;;;;;27.60;6.40;;;10.60;99.90;;;;;;4958377;28;39614;-74
2023/12/22 04:59:58;;;;;;;34.90;5.60;;;10.60;99.90;;;;;;4962493;28;36963;-73
2023/12/22 05:02:24;;;;;;;38.03;5.87;;;10.60;99.90;;;;;;4961487;28;39804;-74
2023/12/22 05:04:50;;;;;;;34.53;6.07;;;10.60;99.90;;;;;;4974789;28;38424;-74
2023/12/22 05:07:16;;;;;;;33.80;6.70;;;10.60;99.90;;;;;;4960411;28;37336;-74
2023/12/22 05:09:42;;;;;;;38.87;7.13;;;10.50;99.90;;;;;;4961396;28;37174;-75
2023/12/22 05:12:09;;;;;;;41.93;6.90;;;10.40;99.90;;;;;;4959695;28;38144;-73
2023/12/22 05:14:35;;;;;;;37.60;5.87;;;10.40;99.90;;;;;;4958857;28;37676;-75
2023/12/22 05:17:01;;;;;;;34.33;6.97;;;10.40;99.90;;;;;;4960215;28;37433;-77
2023/12/22 05:19:27;;;;;;;40.00;8.13;;;10.40;99.90;;;;;;4958636;28;36099;-74
2023/12/22 05:21:55;;;;;;;31.03;5.33;;;10.40;99.90;;;;;;4976015;28;38179;-74
2023/12/22 05:24:22;;;;;;;43.00;6.93;;;10.40;99.90;;;;;;4961550;28;39343;-73
2023/12/22 05:26:48;;;;;;;39.70;7.27;;;10.40;99.90;;;;;;4975849;28;36742;-74
2023/12/22 05:29:14;;;;;;;45.73;6.27;;;10.40;99.90;;;;;;4960206;28;36940;-74
2023/12/22 05:31:40;;;;;;;42.67;6.23;;;10.50;99.90;;;;;;4961022;28;38340;-74
2023/12/22 05:34:08;;;;;;;35.97;7.00;;;10.50;99.90;;;;;;4964432;28;38608;-74
2023/12/22 05:36:34;;;;;;;43.53;7.57;;;10.50;99.90;;;;;;4960018;28;36989;-75
2023/12/22 05:39:00;;;;;;;38.03;7.50;;;10.50;99.90;;;;;;4962295;28;37127;-75
2023/12/22 05:41:26;;;;;;;44.00;7.13;;;10.50;99.90;;;;;;4975376;28;38267;-73
2023/12/22 05:43:52;;;;;;;46.80;7.53;;;10.60;99.90;;;;;;4980897;28;38100;-76
2023/12/22 05:46:18;;;;;;;40.50;7.77;;;10.50;99.90;;;;;;4982747;28;37359;-73
2023/12/22 05:48:44;;;;;;;46.87;7.93;;;10.60;99.90;;;;;;4966243;28;36770;-74
2023/12/22 05:51:13;;;;;;;46.03;7.50;;;10.60;99.90;;;;;;4962607;28;38737;-74
2023/12/22 05:53:40;;;;;;;43.47;8.10;;;10.60;99.90;;;;;;4965174;28;38282;-74
2023/12/22 05:56:18;;;;;;;44.20;7.63;;;10.60;99.90;;;;;;4963676;28;38903;-74
2023/12/22 05:58:44;;;;;;;47.37;8.47;;;10.60;99.90;;;;;;4966976;28;37891;-74
2023/12/22 06:01:18;;;;;;;40.47;8.13;;;10.60;99.40;;;;;;4980840;28;38382;-74
2023/12/22 06:03:48;;;;;;;43.00;7.00;;;10.60;97.40;;;;;;4962424;28;38181;-74
2023/12/22 06:06:14;;;;;;;43.60;6.87;;;10.70;98.00;;;;;;4963199;28;38307;-73
2023/12/22 06:08:40;;;;;;;38.90;6.53;;;10.70;91.50;;;;;;4961227;28;35738;-73
2023/12/22 06:11:06;;;;;;;38.43;6.77;;;10.70;91.30;;;;;;4963602;28;37699;-75
2023/12/22 06:13:33;;;;;;;42.33;7.30;;;10.70;92.30;;;;;;4966090;28;39023;-75
2023/12/22 06:15:59;;;;;;;42.60;7.70;;;10.80;91.50;;;;;;4967866;28;38313;-75
2023/12/22 06:18:25;;;;;;;53.67;7.87;;;10.70;93.90;;;;;;4967570;28;37094;-74
2023/12/22 06:20:52;;;;;;;47.23;7.83;;;10.70;96.20;;;;;;4965551;28;39567;-75
2023/12/22 06:23:18;;;;;;;39.70;7.30;;;10.70;97.50;;;;;;4956387;28;37438;-75
2023/12/22 06:25:46;;;;;;;42.97;7.17;;;10.70;99.30;;;;;;4957039;28;36485;-74
2023/12/22 06:28:12;;;;;;;38.90;6.20;;;10.70;96.60;;;;;;4960092;28;37696;-75
2023/12/22 06:30:38;;;;;;;32.40;6.77;;;10.80;95.00;;;;;;4959734;28;39908;-74
2023/12/22 06:33:04;;;;;;;34.37;6.27;;;10.80;96.50;;;;;;4957117;28;38680;-75
2023/12/22 06:35:33;;;;;;;37.73;6.87;;;10.80;96.30;;;;;;4971942;28;37282;-76
2023/12/22 06:38:03;;;;;;;33.53;6.00;;;10.80;98.10;;;;;;4963172;28;35881;-74
2023/12/22 06:40:29;;;;;;;38.13;6.93;;;10.80;95.50;;;;;;4976485;28;48197;-75
2023/12/22 06:42:55;;;;;;;36.57;5.80;;;10.80;94.20;;;;;;4962486;28;36080;-74
2023/12/22 06:45:21;;;;;;;32.33;5.67;;;10.80;94.40;;;;;;4961812;28;37556;-75
2023/12/22 06:47:48;;;;;;;32.87;6.27;;;10.80;95.30;;;;;;4974761;28;38688;-75
2023/12/22 06:50:14;;;;;;;33.83;5.60;;;10.80;95.80;;;;;;4966598;28;39475;-73
2023/12/22 06:52:40;;;;;;;36.40;6.90;;;10.80;95.90;;;;;;4968595;28;38275;-74
2023/12/22 06:55:06;;;;;;;34.10;6.37;;;10.80;97.10;;;;;;4978911;28;38014;-76
2023/12/22 06:57:32;;;;;;;39.40;5.87;;;10.80;97.90;;;;;;4979898;28;36276;-76
2023/12/22 06:59:59;;;;;;;31.57;5.27;;;10.80;99.40;;;;;;4956077;28;39875;-76
2023/12/22 07:02:25;;;;;;;42.33;6.33;;;10.80;99.90;;;;;;4959644;28;39609;-74
2023/12/22 07:05:10;;;;;;;35.23;5.83;;;10.80;99.90;;;;;;4964003;28;37026;-74
2023/12/22 07:07:36;;;;;;;30.07;5.67;;;10.80;99.90;;;;;;4964653;28;48521;-75
2023/12/22 07:10:03;;;;;;;34.20;6.53;;;10.80;99.90;;;;;;4964358;28;40286;-75
2023/12/22 07:12:29;;;;;;;30.30;5.40;;;10.70;99.90;;;;;;4953981;28;38592;-74
2023/12/22 07:14:55;;;;;;;27.67;5.07;;;10.70;99.90;;;;;;4964296;28;38213;-75
2023/12/22 07:17:22;;;;;;;31.60;6.10;;;10.70;99.90;;;;;;4981549;28;37370;-74
2023/12/22 07:19:48;;;;;;;28.77;5.37;;;10.70;99.90;;;;;;4967088;28;37803;-74
2023/12/22 07:22:14;;;;;;;31.30;5.07;;;10.70;99.90;;;;;;4971586;28;38548;-76
2023/12/22 07:24:41;;;;;;;31.07;5.73;;;10.60;99.90;;;;;;4980428;28;36974;-75
2023/12/22 07:27:07;;;;;;;34.57;5.80;;;10.60;99.90;;;;;;4984593;28;37453;-76
2023/12/22 07:29:33;;;;;;;32.77;5.73;;;10.70;99.90;;;;;;4977658;28;38934;-74
2023/12/22 07:31:59;;;;;;;28.87;6.03;;;10.70;99.90;;;;;;4969159;28;37295;-75
2023/12/22 07:34:25;;;;;;;28.73;5.17;;;10.60;99.90;;;;;;4969014;28;36994;-77
2023/12/22 07:36:53;;;;;;;31.73;5.30;;;10.60;99.90;;;;;;4969505;28;37962;-74
2023/12/22 07:39:19;;;;;;;25.70;4.37;;;10.60;99.90;;;;;;4980291;28;39436;-74
2023/12/22 07:41:45;;;;;;;27.43;5.20;;;10.60;99.90;;;;;;4984629;28;37133;-74
2023/12/22 07:44:11;;;;;;;24.47;4.17;;;10.60;99.90;;;;;;4978477;28;36822;-77
2023/12/22 07:46:37;;;;;;;30.67;5.07;;;10.60;99.90;;;;;;4971863;28;37141;-77
2023/12/22 07:49:03;;;;;;;28.63;4.27;;;10.60;99.90;;;;;;4983797;28;38617;-74
2023/12/22 07:51:29;;;;;;;28.30;4.33;;;10.50;99.90;;;;;;4982795;28;38201;-74
2023/12/22 07:53:55;;;;;;;26.20;5.20;;;10.50;99.90;;;;;;4972818;28;37578;-74
2023/12/22 07:56:22;;;;;;;23.83;3.93;;;10.50;99.90;;;;;;4987097;28;37188;-74
2023/12/22 07:58:48;;;;;;;23.20;4.33;;;10.50;99.90;;;;;;4974232;28;37605;-75
2023/12/22 08:01:17;;;;;;;31.20;4.13;;;10.50;99.90;;;;;;4970456;28;37890;-75
2023/12/22 08:03:43;;;;;;;23.63;3.83;;;10.40;99.90;;;;;;4985163;28;38493;-74
2023/12/22 08:06:10;;;;;;;25.23;4.03;;;10.40;99.90;;;;;;4987192;28;34833;-74
2023/12/22 08:08:36;;;;;;;21.87;3.73;;;10.40;99.90;;;;;;4970607;28;40159;-75
2023/12/22 08:11:02;;;;;;;20.93;3.20;;;10.40;99.90;;;;;;4986038;28;38353;-75
2023/12/22 08:13:28;;;;;;;26.00;3.50;;;10.40;99.90;;;;;;4968857;28;37259;-76
2023/12/22 08:15:54;;;;;;;19.03;3.20;;;10.40;99.90;;;;;;4984967;28;36583;-75
2023/12/22 08:18:20;;;;;;;25.00;3.77;;;10.40;99.90;;;;;;4961665;28;38525;-76
2023/12/22 08:20:49;;;;;;;25.53;3.43;;;10.50;99.90;;;;;;4964762;28;38548;-76
2023/12/22 08:23:15;;;;;;;22.43;3.40;;;10.50;99.90;;;;;;4975993;28;37290;-75
2023/12/22 08:25:41;;;;;;;20.00;3.17;;;10.50;99.90;;;;;;4977227;28;36479;-75
2023/12/22 08:28:07;;;;;;;21.27;2.93;;;10.50;99.90;;;;;;4957990;28;37832;-75
2023/12/22 08:30:34;;;;;;;17.90;3.43;;;10.50;99.90;;;;;;4964769;28;38438;-75
2023/12/22 08:33:00;;;;;;;24.80;3.10;;;10.60;99.90;;;;;;4976041;28;38370;-75
2023/12/22 08:35:26;;;;;;;14.60;2.37;;;10.60;99.90;;;;;;4974228;28;37623;-74
2023/12/22 08:37:52;;;;;;;14.53;2.70;;;10.60;99.90;;;;;;4967366;28;38743;-76
2023/12/22 08:40:25;;;;;;;16.40;2.60;;;10.60;99.90;;;;;;4966503;28;37374;-74
2023/12/22 08:42:54;;;;;;;;;;;10.50;99.90;;;;;;4963707;28;39115;-75
2023/12/22 08:45:21;;;;;;;14.87;2.43;;;10.50;99.90;;;;;;4965351;28;37962;-77
2023/12/22 08:47:47;;;;;;;12.43;1.80;;;10.50;99.90;;;;;;4961918;28;38619;-74
2023/12/22 08:50:13;;;;;;;14.07;2.10;;;10.50;99.90;;;;;;4975015;28;40793;-76
2023/12/22 08:52:40;;;;;;;12.60;2.50;;;10.50;99.90;;;;;;4976167;28;36657;-74
2023/12/22 08:55:06;;;;;;;12.50;1.80;;;10.50;99.90;;;;;;4964483;28;36144;-74
2023/12/22 08:57:32;;;;;;;11.03;1.97;;;10.60;99.90;;;;;;4983249;28;39137;-74
2023/12/22 08:59:58;;;;;;;20.37;2.67;;;10.60;99.90;;;;;;4976555;28;37109;-75
2023/12/22 09:02:26;;;;;;;13.43;2.10;;;10.70;99.90;;;;;;4979154;28;37931;-77
2023/12/22 09:04:52;;;;;;;17.80;2.37;;;10.70;99.90;;;;;;4986162;28;37340;-75
2023/12/22 09:07:19;;;;;;;16.47;2.17;;;10.80;99.90;;;;;;4984678;28;37849;-75
2023/12/22 09:09:45;;;;;;;12.00;2.47;;;10.80;99.90;;;;;;4967504;28;37588;-74
2023/12/22 09:12:11;;;;;;;14.43;2.67;;;10.90;99.90;;;;;;4963062;28;36980;-75
2023/12/22 09:14:37;;;;;;;13.50;2.33;;;10.90;99.90;;;;;;4971322;28;36233;-75
2023/12/22 09:17:03;;;;;;;13.63;2.47;;;11.00;99.90;;;;;;4980370;28;38966;-77
2023/12/22 09:19:33;;;;;;;13.97;2.80;;;11.00;99.90;;;;;;4981350;28;37396;-75
2023/12/22 09:21:59;;;;;;;12.83;1.80;;;11.00;99.90;;;;;;4966839;28;38440;-74
2023/12/22 09:24:25;;;;;;;12.00;1.77;;;11.10;99.90;;;;;;4983695;28;35919;-76
2023/12/22 09:26:52;;;;;;;20.43;2.47;;;11.20;99.90;;;;;;4982010;28;37926;-76
2023/12/22 09:29:18;;;;;;;18.03;2.60;;;11.20;99.90;;;;;;4968010;28;38499;-75
2023/12/22 09:31:44;;;;;;;11.88;1.58;;;11.20;99.90;;;;;;4965832;28;37250;-75
2023/12/22 09:34:10;;;;;;;7.97;1.90;;;11.30;99.90;;;;;;4966595;28;37254;-74
2023/12/22 09:36:36;;;;;;;13.13;2.22;;;11.30;99.90;;;;;;4965542;28;39278;-75
2023/12/22 09:39:02;;;;;;;16.93;2.07;;;11.30;99.90;;;;;;4978400;28;38666;-76
2023/12/22 09:41:28;;;;;;;11.07;2.25;;;11.40;99.90;;;;;;4981144;28;37215;-74
2023/12/22 09:43:57;;;;;;;15.97;1.80;;;11.40;99.90;;;;;;4966810;28;37111;-74
2023/12/22 09:46:26;;;;;;;16.27;2.37;;;11.40;99.90;;;;;;4965741;28;39195;-74
2023/12/22 09:48:53;;;;;;;15.85;2.38;;;11.40;99.90;;;;;;4979428;28;37712;-74
2023/12/22 09:51:20;;;;;;;12.27;1.77;;;11.40;99.90;;;;;;4964027;28;38583;-76
2023/12/22 09:53:47;;;;;;;18.13;2.57;;;11.40;99.90;;;;;;4970802;28;37637;-74
2023/12/22 09:56:15;;;;;;;9.47;1.67;;;11.40;99.90;;;;;;4983581;28;40790;-75
2023/12/22 09:58:41;;;;;;;13.70;2.57;;;11.40;99.90;;;;;;4964659;28;38648;-75
2023/12/22 10:01:08;;;;;;;14.67;2.47;;;11.50;99.90;;;;;;4958561;28;37503;-74
2023/12/22 10:03:36;;;;;;;14.87;2.33;;;11.50;99.90;;;;;;4966407;28;36500;-76
2023/12/22 10:06:03;;;;;;;12.35;2.97;;;11.50;99.90;;;;;;4964288;28;39506;-73
2023/12/22 10:08:30;;;;;;;16.73;3.60;;;11.50;99.90;;;;;;4968225;28;37397;-74
2023/12/22 10:10:56;;;;;;;12.70;2.40;;;11.60;99.90;;;;;;4968856;28;38122;-74
2023/12/22 10:13:23;;;;;;;15.38;2.58;;;11.60;99.90;;;;;;4966414;28;36862;-74
2023/12/22 10:15:50;;;;;;;19.13;2.70;;;11.60;99.90;;;;;;4965492;28;39428;-74
2023/12/22 10:18:16;;;;;;;13.83;2.53;;;11.70;99.90;;;;;;4966813;28;37842;-74
2023/12/22 10:20:42;;;;;;;13.80;2.30;;;11.70;99.90;;;;;;4967709;28;37075;-74
2023/12/22 10:23:09;;;;;;;18.83;3.50;;;11.70;99.90;;;;;;4966869;28;37422;-74
2023/12/22 10:25:35;;;;;;;15.30;2.50;;;11.70;99.90;;;;;;4978770;28;38845;-75
2023/12/22 10:28:01;;;;;;;16.03;2.10;;;11.70;99.90;;;;;;4959920;28;39781;-75
2023/12/22 10:30:28;;;;;;;11.10;2.47;;;11.80;99.90;;;;;;4973859;28;47439;-74
2023/12/22 10:32:54;;;;;;;7.55;1.98;;;11.80;99.90;;;;;;4964945;28;37694;-73
2023/12/22 10:35:23;;;;;;;16.25;2.30;;;11.90;99.90;;;;;;4960876;28;39106;-78
2023/12/22 10:37:55;;;;;;;12.18;1.80;;;11.90;99.90;;;;;;4965082;28;39523;-74
2023/12/22 10:40:22;;;;;;;13.38;2.47;;;12.00;99.90;;;;;;4954125;28;37671;-76
2023/12/22 10:42:49;;;;;;;8.90;2.03;;;12.00;99.90;;;;;;4957899;28;37386;-75
2023/12/22 10:45:17;;;;;;;17.13;2.63;;;12.00;99.90;;;;;;4966418;28;39294;-75
2023/12/22 10:47:43;;;;;;;13.77;2.33;;;11.90;99.90;;;;;;4984962;28;37446;-76
2023/12/22 10:50:13;;;;;;;11.70;2.27;;;11.90;99.90;;;;;;4968171;28;38010;-74
2023/12/22 10:52:39;;;;;;;12.75;2.15;;;11.90;99.90;;;;;;4974567;28;38179;-74
2023/12/22 10:55:06;;;;;;;15.45;3.30;;;11.90;99.90;;;;;;4965369;28;38639;-74
2023/12/22 10:57:38;;;;;;;19.77;2.55;;;11.90;99.90;;;;;;4967892;28;39442;-75
2023/12/22 11:00:07;;;;;;;13.23;2.50;;;11.90;99.90;;;;;;4967519;28;37862;-75
2023/12/22 11:02:35;;;;;;;18.92;2.30;;;12.00;99.90;;;;;;4969569;28;36758;-75
2023/12/22 11:05:05;;;;;;;13.23;2.45;;;12.00;99.90;;;;;;4970143;28;38367;-75
2023/12/22 11:07:37;;;;;;;16.80;2.30;;;12.00;99.90;;;;;;4969462;28;47281;-76
2023/12/22 11:10:06;;;;;;;14.77;2.25;;;12.00;99.90;;;;;;4968732;28;37500;-74
2023/12/22 11:12:34;;;;;;;9.20;1.83;;;11.90;99.90;;;;;;4984483;28;47600;-76
2023/12/22 11:15:03;;;;;;;14.15;2.30;;;11.90;99.90;;;;;;4961987;28;38511;-75
2023/12/22 11:17:32;;;;;;;14.18;2.20;;;11.80;99.90;;;;;;4963741;28;37231;-75
2023/12/22 11:19:59;;;;;;;15.68;2.33;;;11.80;99.90;;;;;;4966803;28;38344;-75
2023/12/22 11:22:26;;;;;;;16.83;2.65;;;11.90;99.90;;;;;;4975885;28;37403;-75
2023/12/22 11:24:53;;;;;;;16.17;3.13;;;11.80;99.90;;;;;;4973100;28;38890;-76
2023/12/22 11:27:20;;;;;;;13.07;2.00;;;11.90;99.90;;;;;;4964794;28;39092;-74
2023/12/22 11:29:50;;;;;;;16.63;2.30;;;11.90;99.90;;;;;;4964293;28;38201;-74
2023/12/22 11:32:18;;;;;;;13.02;2.05;;;11.90;99.90;;;;;;4967200;28;36835;-75
2023/12/22 11:34:46;;;;;;;9.70;2.22;;;12.00;99.90;;;;;;4967220;28;38248;-75
2023/12/22 11:37:13;;;;;;;10.80;2.00;;;12.00;99.90;;;;;;4980657;28;38409;-76
2023/12/22 11:39:44;;;;;;;15.02;2.70;;;12.00;99.90;;;;;;4965242;28;39018;-75
2023/12/22 11:42:28;;;;;;;11.70;2.28;;;12.10;99.90;;;;;;4970506;28;36700;-74
2023/12/22 11:44:54;;;;;;;15.07;3.05;;;12.10;99.90;;;;;;4964461;28;39746;-76
2023/12/22 11:47:23;;;;;;;17.75;2.67;;;12.10;99.90;;;;;;4979376;28;37323;-75
2023/12/22 11:49:50;;;;;;;17.00;2.40;;;12.20;99.90;;;;;;4966966;28;39417;-74
2023/12/22 11:52:18;;;;;;;9.52;1.70;;;12.10;99.90;;;;;;4963420;28;36272;-75
2023/12/22 11:54:51;;;;;;;10.55;2.28;;;12.20;99.90;;;;;;4969430;28;39813;-76
2023/12/22 11:57:35;;;;;;;12.90;2.70;;;12.20;99.90;;;;;;4982669;28;39016;-73
2023/12/22 12:00:07;;;;;;;10.80;2.20;;;12.10;99.90;;;;;;4964215;28;38440;-75
2023/12/22 12:02:37;;;;;;;;;;;12.10;99.90;;;;;;4964427;28;37436;-76
2023/12/22 12:05:06;;;;;;;16.92;2.22;;;12.10;99.90;;;;;;4983784;28;39265;-74
2023/12/22 12:07:50;;;;;;;10.02;2.13;;;12.10;99.90;;;;;;4963948;28;47404;-75
2023/12/22 12:10:53;;;;;;;13.95;2.47;;;12.20;99.90;;;;;;4966982;28;36883;-75
2023/12/22 12:13:24;;;;;;;12.25;2.25;;;12.20;99.90;;;;;;4967560;28;36392;-75
2023/12/22 12:15:51;;;;;;;15.95;2.30;;;12.20;99.90;;;;;;4969744;28;38399;-74
2023/12/22 12:18:22;;;;;;;14.10;3.17;;;12.20;99.90;;;;;;4962617;28;38605;-75
2023/12/22 12:20:49;;;;;;;19.05;3.58;;;12.20;99.90;;;;;;4959377;28;36597;-74
2023/12/22 12:23:18;;;;;;;18.40;2.72;;;12.10;99.90;;;;;;4960636;28;37100;-74
2023/12/22 12:25:44;;;;;;;18.30;2.08;;;12.10;99.90;;;;;;4956631;28;40633;-74
2023/12/22 12:28:10;;;;;;;13.48;2.15;;;12.10;99.90;;;;;;4967689;28;37667;-75
2023/12/22 12:30:38;;;;;;;14.02;2.42;;;12.10;99.90;;;;;;4965719;28;38086;-74
2023/12/22 12:33:11;;;;;;;21.40;2.50;;;12.10;99.90;;;;;;4965954;28;38058;-76
2023/12/22 12:35:38;;;;;;;14.68;2.30;;;12.10;99.90;;;;;;4966763;28;38764;-74
2023/12/22 12:38:04;;;;;;;13.27;3.03;;;12.10;99.90;;;;;;4958600;28;38015;-74
2023/12/22 12:40:33;;;;;;;19.35;2.67;;;12.10;99.90;;;;;;4970648;28;38774;-75
2023/12/22 12:43:00;;;;;;;15.80;2.60;;;12.10;99.90;;;;;;4959964;28;36116;-74